Hauptseite
METAR-TAF:

METAR-TAF

Flughäfen :

Flughafen Castellón

Castellón de la Plana, Spanien

Breite: 40-12-35N, Länge: 0-04-11E, Höhe: 360 m

Beobachtung

Neuester Wetterbericht von vor 35 Minuten, um 01:00 UTC
Wind 8 kt aus West, variierte zwischen Südwest und West/Nordwest
Temperatur 9°C
Luftfeuchtigkeit 53%
Luftdruck 1019 hPa
Sichtweite 10 km oder mehr

METAR: LECH 120100Z AUTO 26008KT 220V290 9999 NCD 09/M00 Q1019

Zeit: 02:35 (01:35 UTC)


TAF: fehlend

Wetterbeobachtungen und Prognosen von mehr als 4000 Flughäfen (METAR und TAF Bericht).

Die verfügbaren Stationen werden durch gelbe und rote Markierungen auf der Karte dargestellt.

Führen Sie die Maus auf sie, um den Namen der Station zu sehen.

Darauf klicken, um die Beobachtung von Wetterbeobachtungen und Prognosen zu sehen.

Um die Karte zu ändern : klicken Sie auf den grünen Tasten mit einem schwarzen Kreuz Zum Vergrößern, auf den grünen Button mit einem Gedankenstrich zu verkleinern, oder auf die grünen Pfeile für benachbarte Karten.


METAR-TAF: